createdAt,value
2017-01-06T00:00:11.362Z,26.73
2017-01-06T00:01:11.867Z,26.76
2017-01-06T00:02:11.874Z,26.63
2017-01-06T00:03:11.433Z,26.7
2017-01-06T00:04:11.842Z,26.75
2017-01-06T00:05:11.505Z,26.76
2017-01-06T00:06:11.461Z,26.8
2017-01-06T00:07:11.864Z,26.73
2017-01-06T00:08:11.877Z,26.77
2017-01-06T00:09:11.539Z,26.65
2017-01-06T00:10:11.934Z,26.66
2017-01-06T00:11:11.552Z,26.63
2017-01-06T00:12:11.559Z,26.8
2017-01-06T00:13:11.564Z,26.77
2017-01-06T00:14:11.524Z,26.84
2017-01-06T00:15:11.978Z,26.84
2017-01-06T00:16:11.489Z,26.82
2017-01-06T00:17:11.543Z,26.77
2017-01-06T00:18:11.207Z,26.82
2017-01-06T00:19:11.561Z,26.82
2017-01-06T00:20:11.966Z,26.87
2017-01-06T00:21:11.575Z,26.89
2017-01-06T00:22:11.930Z,26.87
2017-01-06T00:23:11.639Z,26.92
2017-01-06T00:24:11.603Z,26.87
2017-01-06T00:25:11.731Z,26.85
2017-01-06T00:26:11.197Z,26.8
2017-01-06T00:27:12.271Z,26.84
2017-01-06T00:28:12.030Z,26.8
2017-01-06T00:29:12.147Z,26.82
2017-01-06T00:30:11.645Z,26.87
2017-01-06T00:31:11.209Z,26.81
2017-01-06T00:32:11.609Z,26.77
2017-01-06T00:33:11.723Z,26.82
2017-01-06T00:34:11.627Z,26.87
2017-01-06T00:35:11.240Z,26.85
2017-01-06T00:36:11.753Z,26.84
2017-01-06T00:37:11.305Z,26.82
2017-01-06T00:38:11.663Z,26.88
2017-01-06T00:39:11.381Z,26.84
2017-01-06T00:40:11.282Z,26.82
2017-01-06T00:41:11.388Z,26.84
2017-01-06T00:42:11.689Z,26.91
2017-01-06T00:43:12.199Z,26.95
2017-01-06T00:44:11.754Z,26.97
2017-01-06T00:45:11.814Z,26.95
2017-01-06T00:46:11.720Z,26.89
2017-01-06T00:47:11.831Z,26.85
2017-01-06T00:48:11.735Z,26.81
2017-01-06T00:49:11.799Z,26.85
2017-01-06T00:50:11.407Z,26.88
2017-01-06T00:51:11.810Z,26.87
2017-01-06T00:52:11.867Z,26.85
2017-01-06T00:53:12.223Z,26.91
2017-01-06T00:54:11.786Z,26.85
2017-01-06T00:55:11.792Z,26.94
2017-01-06T00:56:11.402Z,26.95
2017-01-06T00:57:11.807Z,26.95
2017-01-06T00:58:13.316Z,26.94
2017-01-06T00:59:11.482Z,26.87
2017-01-06T01:00:12.325Z,26.84
2017-01-06T01:01:11.889Z,26.92
2017-01-06T01:02:11.947Z,26.88
2017-01-06T01:03:12.300Z,26.77
2017-01-06T01:04:11.467Z,26.84
2017-01-06T01:05:11.573Z,26.87
2017-01-06T01:06:12.378Z,26.82
2017-01-06T01:07:11.539Z,26.81
2017-01-06T01:08:11.942Z,26.87
2017-01-06T01:09:11.951Z,26.69
2017-01-06T01:10:12.334Z,26.72
2017-01-06T01:11:11.622Z,26.87
2017-01-06T01:12:11.578Z,26.85
2017-01-06T01:13:12.035Z,26.77
2017-01-06T01:14:12.407Z,26.77
2017-01-06T01:15:11.554Z,26.8
2017-01-06T01:16:11.958Z,26.82
2017-01-06T01:17:11.618Z,26.92
2017-01-06T01:18:12.024Z,26.82
2017-01-06T01:19:12.028Z,26.84
2017-01-06T01:20:11.639Z,26.82
2017-01-06T01:21:12.414Z,26.85
2017-01-06T01:22:11.710Z,26.75
2017-01-06T01:23:12.459Z,26.81
2017-01-06T01:24:12.516Z,26.81
2017-01-06T01:25:11.631Z,26.84
2017-01-06T01:26:12.480Z,26.76
2017-01-06T01:27:11.754Z,26.77
2017-01-06T01:28:26.534Z,26.81
2017-01-06T01:29:12.058Z,26.89
2017-01-06T01:30:12.115Z,26.84
2017-01-06T01:31:12.519Z,26.82
2017-01-06T01:32:12.135Z,26.87
2017-01-06T01:33:11.745Z,26.81
2017-01-06T01:34:11.806Z,26.82
2017-01-06T01:35:12.500Z,26.84
2017-01-06T01:36:11.766Z,27.03
2017-01-06T01:37:12.121Z,27
2017-01-06T01:38:12.227Z,26.89
2017-01-06T01:39:12.634Z,26.99
2017-01-06T01:40:12.590Z,26.91
2017-01-06T01:41:12.153Z,26.89
2017-01-06T01:42:12.213Z,26.91
2017-01-06T01:43:11.896Z,26.85
2017-01-06T01:44:12.671Z,26.94
2017-01-06T01:45:12.583Z,26.97
2017-01-06T01:46:12.491Z,26.91
2017-01-06T01:47:12.254Z,26.87
2017-01-06T01:48:12.652Z,26.84
2017-01-06T01:49:12.268Z,26.85
2017-01-06T01:50:12.278Z,26.84
2017-01-06T01:51:12.234Z,26.91
2017-01-06T01:52:11.892Z,26.82
2017-01-06T01:53:12.304Z,26.89
2017-01-06T01:54:12.750Z,26.91
2017-01-06T01:55:12.313Z,26.91
2017-01-06T01:56:12.368Z,26.92
2017-01-06T01:57:11.930Z,26.92
2017-01-06T01:58:13.330Z,26.92
2017-01-06T01:59:12.341Z,26.85
2017-01-06T02:00:12.307Z,26.85
2017-01-06T02:01:44.438Z,26.88
2017-01-06T02:02:12.368Z,26.89
2017-01-06T02:03:12.627Z,26.89
2017-01-06T02:04:12.385Z,26.87
2017-01-06T02:05:12.784Z,26.97
2017-01-06T02:06:12.349Z,26.92
2017-01-06T02:07:12.406Z,26.81
2017-01-06T02:08:12.021Z,26.8
2017-01-06T02:09:12.110Z,26.88
2017-01-06T02:10:12.873Z,26.91
2017-01-06T02:11:11.990Z,26.94
2017-01-06T02:12:12.845Z,26.88
2017-01-06T02:13:12.452Z,26.85
2017-01-06T02:14:12.857Z,26.88
2017-01-06T02:15:12.127Z,26.88
2017-01-06T02:16:12.871Z,26.88
2017-01-06T02:17:12.037Z,26.81
2017-01-06T02:18:12.888Z,26.82
2017-01-06T02:19:12.555Z,26.84
2017-01-06T02:20:12.903Z,26.89
2017-01-06T02:21:12.071Z,26.81
2017-01-06T02:22:12.968Z,26.81
2017-01-06T02:23:12.631Z,26.88
2017-01-06T02:24:12.139Z,26.84
2017-01-06T02:25:12.800Z,26.88
2017-01-06T02:26:12.902Z,26.82
2017-01-06T02:27:12.562Z,26.87
2017-01-06T02:28:12.672Z,26.88
2017-01-06T02:29:12.530Z,26.84
2017-01-06T02:30:12.938Z,26.82
2017-01-06T02:31:12.989Z,26.84
2017-01-06T02:32:13.046Z,26.82
2017-01-06T02:33:12.659Z,26.87
2017-01-06T02:34:12.222Z,26.75
2017-01-06T02:35:13.069Z,26.84
2017-01-06T02:36:12.237Z,26.7
2017-01-06T02:37:12.243Z,26.84
2017-01-06T02:38:12.605Z,26.82
2017-01-06T02:39:12.660Z,26.81
2017-01-06T02:40:13.160Z,26.87
2017-01-06T02:41:12.620Z,26.84
2017-01-06T02:42:13.076Z,26.84
2017-01-06T02:43:12.242Z,26.87
2017-01-06T02:44:12.642Z,26.81
2017-01-06T02:45:12.306Z,26.88
2017-01-06T02:46:12.663Z,26.82
2017-01-06T02:47:12.727Z,26.88
2017-01-06T02:48:13.074Z,26.87
2017-01-06T02:49:12.788Z,26.91
2017-01-06T02:50:12.741Z,26.91
2017-01-06T02:51:13.200Z,26.84
2017-01-06T02:52:12.707Z,26.88
2017-01-06T02:53:12.419Z,26.91
2017-01-06T02:54:12.721Z,26.85
2017-01-06T02:55:13.134Z,26.82
2017-01-06T02:56:13.136Z,26.87
2017-01-06T02:57:13.140Z,26.88
2017-01-06T02:58:12.357Z,26.92
2017-01-06T02:59:12.761Z,26.84
2017-01-06T03:00:12.774Z,26.94
2017-01-06T03:01:12.429Z,26.94
2017-01-06T03:02:12.835Z,26.88
2017-01-06T03:03:12.890Z,26.88
2017-01-06T03:04:12.455Z,26.89
2017-01-06T03:05:12.510Z,26.82
2017-01-06T03:06:13.261Z,26.85
2017-01-06T03:07:12.874Z,26.84
2017-01-06T03:08:12.831Z,26.97
2017-01-06T03:09:13.283Z,26.89
2017-01-06T03:10:12.897Z,26.91
2017-01-06T03:11:12.982Z,26.97
2017-01-06T03:12:12.912Z,26.97
2017-01-06T03:13:12.870Z,27.04
2017-01-06T03:14:12.931Z,26.97
2017-01-06T03:15:12.883Z,26.95
2017-01-06T03:16:12.549Z,26.94
2017-01-06T03:17:12.949Z,26.95
2017-01-06T03:18:12.962Z,26.91
2017-01-06T03:19:12.969Z,26.94
2017-01-06T03:20:13.321Z,27.02
2017-01-06T03:21:12.983Z,26.89
2017-01-06T03:22:13.386Z,26.88
2017-01-06T03:23:12.953Z,26.91
2017-01-06T03:24:12.963Z,27
2017-01-06T03:25:12.621Z,26.92
2017-01-06T03:26:13.071Z,26.87
2017-01-06T03:27:13.527Z,26.91
2017-01-06T03:28:12.993Z,26.88
2017-01-06T03:29:12.900Z,26.91
2017-01-06T03:30:13.006Z,26.88
2017-01-06T03:31:13.062Z,26.92
2017-01-06T03:32:13.468Z,27
2017-01-06T03:33:13.524Z,26.92
2017-01-06T03:34:13.037Z,26.97
2017-01-06T03:35:12.701Z,26.95
2017-01-06T03:36:13.403Z,27.02
2017-01-06T03:37:12.665Z,26.92
2017-01-06T03:38:13.118Z,27
2017-01-06T03:39:13.377Z,26.89
2017-01-06T03:40:12.737Z,26.95
2017-01-06T03:41:13.089Z,26.82
2017-01-06T03:42:13.150Z,26.84
2017-01-06T03:43:12.759Z,26.94
2017-01-06T03:44:13.163Z,26.97
2017-01-06T03:45:12.827Z,26.97
2017-01-06T03:46:13.183Z,27.02
2017-01-06T03:47:12.743Z,26.99
2017-01-06T03:48:13.543Z,26.99
2017-01-06T03:49:13.602Z,26.97
2017-01-06T03:50:13.264Z,26.99
2017-01-06T03:51:13.169Z,27
2017-01-06T03:52:13.576Z,27.02
2017-01-06T03:53:13.186Z,26.91
2017-01-06T03:54:12.847Z,26.91
2017-01-06T03:55:13.648Z,26.92
2017-01-06T03:56:13.260Z,26.97
2017-01-06T03:57:13.669Z,26.94
2017-01-06T03:58:13.327Z,26.94
2017-01-06T03:59:13.232Z,26.99
2017-01-06T04:00:12.846Z,26.95
2017-01-06T04:01:13.249Z,26.91
2017-01-06T04:02:12.918Z,26.92
2017-01-06T04:03:13.811Z,26.88
2017-01-06T04:04:13.271Z,26.89
2017-01-06T04:05:14.024Z,26.97
2017-01-06T04:06:12.890Z,27.02
2017-01-06T04:07:12.898Z,27
2017-01-06T04:08:12.959Z,27.02
2017-01-06T04:09:13.857Z,27
2017-01-06T04:10:13.475Z,27.04
2017-01-06T04:11:13.378Z,26.94
2017-01-06T04:12:13.389Z,27.02
2017-01-06T04:13:13.347Z,27.06
2017-01-06T04:14:13.798Z,27.04
2017-01-06T04:15:13.413Z,27.13
2017-01-06T04:16:13.021Z,27.1
2017-01-06T04:17:13.028Z,27.14
2017-01-06T04:18:13.832Z,27.12
2017-01-06T04:19:13.392Z,27.14
2017-01-06T04:20:13.509Z,27.09
2017-01-06T04:21:13.508Z,27.1
2017-01-06T04:22:13.413Z,27.07
2017-01-06T04:23:13.424Z,27.09
2017-01-06T04:24:13.933Z,27.04
2017-01-06T04:25:13.840Z,27.13
2017-01-06T04:26:13.468Z,26.92
2017-01-06T04:27:13.505Z,27.06
2017-01-06T04:28:13.957Z,26.99
2017-01-06T04:29:13.517Z,27.07
2017-01-06T04:30:13.527Z,27.03
2017-01-06T04:31:13.486Z,27.03
2017-01-06T04:32:13.095Z,27.12
2017-01-06T04:33:13.507Z,27.07
2017-01-06T04:34:13.609Z,27.1
2017-01-06T04:35:13.171Z,27.18
2017-01-06T04:36:13.975Z,27.17
2017-01-06T04:37:13.945Z,27.07
2017-01-06T04:38:13.942Z,27.09
2017-01-06T04:39:13.648Z,27.12
2017-01-06T04:40:13.609Z,27.02
2017-01-06T04:41:13.570Z,27.13
2017-01-06T04:42:14.020Z,27.09
2017-01-06T04:43:13.184Z,26.92
2017-01-06T04:44:13.985Z,27.06
2017-01-06T04:45:13.700Z,27.1
2017-01-06T04:46:14.001Z,27.07
2017-01-06T04:47:14.108Z,27.04
2017-01-06T04:48:13.748Z,27.04
2017-01-06T04:49:14.126Z,27.06
2017-01-06T04:50:13.338Z,27.07
2017-01-06T04:51:14.143Z,27.03
2017-01-06T04:52:14.147Z,27.07
2017-01-06T04:53:14.059Z,27.03
2017-01-06T04:54:13.768Z,27.04
2017-01-06T04:55:13.723Z,27
2017-01-06T04:56:13.685Z,27.12
2017-01-06T04:57:14.155Z,27.04
2017-01-06T04:58:14.096Z,26.99
2017-01-06T04:59:13.754Z,27.03
2017-01-06T05:00:13.367Z,27.02
2017-01-06T05:01:13.770Z,27.12
2017-01-06T05:02:14.275Z,27.06
2017-01-06T05:03:13.861Z,27.04
2017-01-06T05:04:13.797Z,27.14
2017-01-06T05:05:14.200Z,27.03
2017-01-06T05:06:14.209Z,26.88
2017-01-06T05:07:14.217Z,27.09
2017-01-06T05:08:14.525Z,27
2017-01-06T05:09:13.436Z,27
2017-01-06T05:10:14.194Z,27.02
2017-01-06T05:11:14.246Z,27.07
2017-01-06T05:12:13.861Z,27.03
2017-01-06T05:13:13.865Z,27.06
2017-01-06T05:14:13.875Z,27.13
2017-01-06T05:15:13.436Z,27.09
2017-01-06T05:16:13.837Z,27.02
2017-01-06T05:17:13.949Z,27.04
2017-01-06T05:18:13.564Z,27.04
2017-01-06T05:19:13.915Z,27.07
2017-01-06T05:20:13.472Z,27.12
2017-01-06T05:21:13.982Z,27.07
2017-01-06T05:22:14.380Z,27.12
2017-01-06T05:23:13.897Z,27.14
2017-01-06T05:24:13.953Z,27.06
2017-01-06T05:25:13.563Z,27.1
2017-01-06T05:26:13.921Z,27.09
2017-01-06T05:27:14.319Z,27.1
2017-01-06T05:28:14.031Z,27.06
2017-01-06T05:29:14.391Z,27.09
2017-01-06T05:30:14.048Z,27.02
2017-01-06T05:31:14.005Z,26.94
2017-01-06T05:32:14.018Z,27.04
2017-01-06T05:33:14.076Z,27.06
2017-01-06T05:34:14.030Z,27.09
2017-01-06T05:35:14.437Z,27.13
2017-01-06T05:36:13.599Z,27.13
2017-01-06T05:37:14.109Z,27.12
2017-01-06T05:38:14.062Z,27.14
2017-01-06T05:39:14.031Z,27.07
2017-01-06T05:40:13.731Z,27.09
2017-01-06T05:41:14.435Z,27.12
2017-01-06T05:42:14.444Z,27.12
2017-01-06T05:43:14.102Z,27.13
2017-01-06T05:44:14.559Z,27.12
2017-01-06T05:45:14.170Z,27.09
2017-01-06T05:46:14.122Z,27.07
2017-01-06T05:47:14.483Z,27.1
2017-01-06T05:48:14.091Z,27.09
2017-01-06T05:49:14.545Z,27.1
2017-01-06T05:50:14.554Z,27.12
2017-01-06T05:51:14.168Z,27.06
2017-01-06T05:52:14.225Z,27.12
2017-01-06T05:53:14.183Z,27.09
2017-01-06T05:54:14.167Z,27.06
2017-01-06T05:55:14.250Z,27.03
2017-01-06T05:56:14.655Z,27
2017-01-06T05:57:14.167Z,27.04
2017-01-06T05:58:14.222Z,27.04
2017-01-06T05:59:14.629Z,27.17
2017-01-06T06:00:14.632Z,27.21
2017-01-06T06:01:14.740Z,27.14
2017-01-06T06:02:14.253Z,27.13
2017-01-06T06:03:14.212Z,27.09
2017-01-06T06:04:14.270Z,27.07
2017-01-06T06:05:14.725Z,27.1
2017-01-06T06:06:13.891Z,26.99
2017-01-06T06:07:14.639Z,27.04
2017-01-06T06:08:14.355Z,27.02
2017-01-06T06:09:14.259Z,27.07
2017-01-06T06:10:14.368Z,27.03
2017-01-06T06:11:14.723Z,26.99
2017-01-06T06:12:14.388Z,27.06
2017-01-06T06:13:14.393Z,27.04
2017-01-06T06:14:14.357Z,27.02
2017-01-06T06:15:14.360Z,27
2017-01-06T06:16:13.974Z,27.07
2017-01-06T06:17:14.380Z,26.99
2017-01-06T06:18:13.935Z,27.1
2017-01-06T06:19:14.737Z,27.02
2017-01-06T06:20:14.003Z,27.07
2017-01-06T06:21:14.316Z,27.03
2017-01-06T06:22:14.411Z,27.06
2017-01-06T06:23:14.436Z,27.02
2017-01-06T06:24:14.481Z,27.02
2017-01-06T06:25:14.813Z,27.04
2017-01-06T06:26:14.498Z,26.99
2017-01-06T06:27:14.952Z,27.02
2017-01-06T06:28:14.411Z,26.95
2017-01-06T06:29:14.422Z,26.91
2017-01-06T06:30:14.476Z,27.02
2017-01-06T06:31:15.180Z,27.06
2017-01-06T06:32:14.837Z,27.07
2017-01-06T06:33:14.952Z,27.04
2017-01-06T06:34:14.509Z,26.99
2017-01-06T06:35:14.468Z,27.06
2017-01-06T06:36:14.526Z,27.07
2017-01-06T06:37:14.879Z,27.04
2017-01-06T06:38:14.488Z,26.95
2017-01-06T06:39:14.498Z,27.06
2017-01-06T06:40:14.555Z,27.03
2017-01-06T06:41:14.122Z,27.04
2017-01-06T06:42:14.969Z,27.02
2017-01-06T06:43:14.978Z,27
2017-01-06T06:44:14.191Z,26.95
2017-01-06T06:45:14.599Z,27.07
2017-01-06T06:46:14.605Z,27.03
2017-01-06T06:47:14.217Z,27.1
2017-01-06T06:48:14.572Z,27.04
2017-01-06T06:49:15.028Z,26.97
2017-01-06T06:50:14.983Z,26.95
2017-01-06T06:51:15.040Z,26.92
2017-01-06T06:52:14.997Z,26.99
2017-01-06T06:53:14.212Z,27
2017-01-06T06:54:15.010Z,27.02
2017-01-06T06:55:14.629Z,27.07
2017-01-06T06:56:15.183Z,27.02
2017-01-06T06:57:15.138Z,27.09
2017-01-06T06:58:14.697Z,27.04
2017-01-06T06:59:14.758Z,26.99
2017-01-06T07:00:14.717Z,27
2017-01-06T07:01:14.727Z,27.03
2017-01-06T07:02:14.782Z,27.06
2017-01-06T07:03:15.086Z,27.04
2017-01-06T07:04:14.792Z,26.95
2017-01-06T07:05:14.799Z,27.1
2017-01-06T07:06:14.373Z,27.03
2017-01-06T07:07:15.114Z,27.04
2017-01-06T07:08:15.173Z,27.06
2017-01-06T07:09:14.733Z,27.02
2017-01-06T07:10:14.794Z,27.03
2017-01-06T07:11:14.403Z,27.04
2017-01-06T07:12:14.756Z,27.07
2017-01-06T07:13:14.763Z,27.04
2017-01-06T07:14:14.769Z,27.07
2017-01-06T07:15:14.385Z,27.03
2017-01-06T07:16:14.448Z,26.94
2017-01-06T07:17:14.843Z,27.03
2017-01-06T07:18:15.348Z,26.97
2017-01-06T07:19:14.414Z,27.06
2017-01-06T07:20:15.263Z,27.02
2017-01-06T07:21:14.823Z,27.06
2017-01-06T07:22:14.941Z,26.89
2017-01-06T07:23:14.499Z,27.03
2017-01-06T07:24:15.296Z,27
2017-01-06T07:25:14.875Z,27.09
2017-01-06T07:26:14.914Z,27.07
2017-01-06T07:27:14.972Z,27.03
2017-01-06T07:28:15.279Z,27.04
2017-01-06T07:29:14.941Z,27.07
2017-01-06T07:30:14.922Z,27.09
2017-01-06T07:31:15.301Z,27.18
2017-01-06T07:32:14.564Z,27.27
2017-01-06T07:33:15.315Z,27.54
2017-01-06T07:34:15.472Z,27.66
2017-01-06T07:35:15.490Z,27.81
2017-01-06T07:36:14.993Z,27.9
2017-01-06T07:37:15.009Z,28
2017-01-06T07:38:14.560Z,28.03
2017-01-06T07:39:15.412Z,28.12
2017-01-06T07:40:15.024Z,28.22
2017-01-06T07:41:15.473Z,28.33
2017-01-06T07:42:14.691Z,28.43
2017-01-06T07:43:14.600Z,28.51
2017-01-06T07:44:15.453Z,28.54
2017-01-06T07:45:15.511Z,28.73
2017-01-06T07:46:15.421Z,28.7
2017-01-06T07:47:15.474Z,28.78
2017-01-06T07:48:15.111Z,28.89
2017-01-06T07:49:14.700Z,28.77
2017-01-06T07:50:15.452Z,28.86
2017-01-06T07:51:15.021Z,28.88
2017-01-06T07:52:15.125Z,28.96
2017-01-06T07:53:15.525Z,29.02
2017-01-06T07:54:15.480Z,29.02
2017-01-06T07:55:15.141Z,29
2017-01-06T07:56:15.156Z,28.98
2017-01-06T07:57:15.559Z,29.21
2017-01-06T07:58:15.119Z,29.18
2017-01-06T07:59:15.179Z,29.16
2017-01-06T08:00:15.540Z,29.21
2017-01-06T08:01:15.195Z,29.09
2017-01-06T08:02:15.269Z,29.11
2017-01-06T08:03:15.607Z,29.08
2017-01-06T08:04:14.832Z,29.11
2017-01-06T08:05:15.236Z,29.16
2017-01-06T08:06:15.290Z,29.16
2017-01-06T08:07:15.300Z,29.27
2017-01-06T08:08:15.257Z,29.09
2017-01-06T08:09:15.664Z,29.14
2017-01-06T08:10:15.622Z,29.16
2017-01-06T08:11:15.284Z,29.33
2017-01-06T08:12:15.296Z,29.41
2017-01-06T08:13:15.650Z,29.36
2017-01-06T08:14:15.313Z,29.15
2017-01-06T08:15:15.328Z,29.21
2017-01-06T08:16:15.280Z,29.24
2017-01-06T08:17:15.734Z,29.23
2017-01-06T08:18:15.794Z,29.19
2017-01-06T08:19:15.406Z,29.26
2017-01-06T08:20:15.761Z,29.42
2017-01-06T08:21:15.718Z,29.3
2017-01-06T08:22:15.094Z,29.27
2017-01-06T08:23:15.391Z,29.23
2017-01-06T08:24:14.953Z,29.26
2017-01-06T08:25:15.458Z,29.33
2017-01-06T08:26:15.476Z,29.42
2017-01-06T08:27:15.776Z,29.23
2017-01-06T08:28:15.385Z,29.23
2017-01-06T08:29:15.051Z,29.16
2017-01-06T08:30:15.800Z,29.24
2017-01-06T08:31:15.116Z,29.31
2017-01-06T08:32:15.918Z,29.39
2017-01-06T08:33:15.884Z,29.33
2017-01-06T08:34:15.494Z,29.16
2017-01-06T08:35:15.898Z,29.23
2017-01-06T08:36:15.512Z,29.26
2017-01-06T08:37:15.471Z,29.16
2017-01-06T08:38:15.475Z,29.15
2017-01-06T08:39:15.982Z,29.11
2017-01-06T08:40:15.195Z,29.14
2017-01-06T08:41:15.603Z,29.02
2017-01-06T08:42:15.519Z,28.96
2017-01-06T08:43:15.127Z,29.06
2017-01-06T08:44:15.929Z,29.14
2017-01-06T08:45:15.645Z,28.93
2017-01-06T08:46:15.945Z,29.08
2017-01-06T08:47:15.613Z,29.12
2017-01-06T08:48:15.588Z,29.09
2017-01-06T08:49:15.181Z,29.14
2017-01-06T08:50:16.032Z,29.16
2017-01-06T08:51:15.642Z,29.09
2017-01-06T08:52:15.756Z,29.16
2017-01-06T08:53:16.009Z,29.05
2017-01-06T08:54:15.626Z,29.21
2017-01-06T08:55:16.029Z,29.21
2017-01-06T08:56:15.704Z,29.14
2017-01-06T08:57:16.098Z,29.18
2017-01-06T08:58:16.107Z,29.24
2017-01-06T08:59:16.116Z,29.14
2017-01-06T09:00:15.729Z,29.12
2017-01-06T09:01:16.134Z,29.23
2017-01-06T09:02:15.696Z,29.31
2017-01-06T09:03:15.758Z,29.41
2017-01-06T09:04:16.216Z,29.43
2017-01-06T09:05:16.172Z,29.34
2017-01-06T09:06:16.184Z,29.45
2017-01-06T09:07:15.795Z,29.39
2017-01-06T09:08:15.361Z,29.41
2017-01-06T09:09:15.423Z,29.45
2017-01-06T09:10:15.430Z,29.52
2017-01-06T09:11:15.788Z,29.65
2017-01-06T09:12:16.328Z,29.55
2017-01-06T09:13:15.811Z,29.57
2017-01-06T09:14:16.263Z,29.46
2017-01-06T09:15:16.277Z,29.39
2017-01-06T09:16:15.893Z,29.52
2017-01-06T09:17:15.850Z,29.67
2017-01-06T09:18:16.305Z,29.58
2017-01-06T09:19:15.525Z,29.49
2017-01-06T09:20:16.236Z,29.61
2017-01-06T09:21:16.008Z,29.64
2017-01-06T09:22:15.952Z,29.71
2017-01-06T09:23:16.308Z,29.65
2017-01-06T09:24:15.976Z,29.64
2017-01-06T09:25:16.385Z,29.76
2017-01-06T09:26:16.398Z,29.74
2017-01-06T09:27:16.060Z,29.78
2017-01-06T09:28:15.574Z,29.6
2017-01-06T09:29:16.381Z,29.68
2017-01-06T09:30:15.998Z,29.74
2017-01-06T09:31:16.058Z,29.85
2017-01-06T09:32:16.463Z,29.8
2017-01-06T09:33:16.474Z,29.73
2017-01-06T09:34:16.088Z,29.86
2017-01-06T09:35:15.651Z,29.8
2017-01-06T09:36:16.058Z,29.76
2017-01-06T09:37:16.118Z,29.76
2017-01-06T09:38:16.526Z,29.67
2017-01-06T09:39:16.440Z,29.65
2017-01-06T09:40:16.151Z,29.7
2017-01-06T09:41:16.159Z,29.53
2017-01-06T09:42:16.521Z,29.64
2017-01-06T09:43:16.533Z,29.64
2017-01-06T09:44:16.198Z,29.7
2017-01-06T09:45:15.756Z,29.57
2017-01-06T09:46:16.188Z,29.64
2017-01-06T09:47:16.619Z,29.55
2017-01-06T09:48:16.681Z,29.73
2017-01-06T09:49:16.397Z,29.65
2017-01-06T09:50:16.596Z,29.67
2017-01-06T09:51:16.213Z,29.48
2017-01-06T09:52:16.705Z,29.52
2017-01-06T09:53:16.229Z,29.64
2017-01-06T09:54:16.635Z,29.49
2017-01-06T09:55:16.300Z,29.49
2017-01-06T09:56:16.309Z,29.48
2017-01-06T09:57:16.320Z,29.41
2017-01-06T09:58:15.881Z,29.42
2017-01-06T09:59:16.336Z,29.42
2017-01-06T10:00:16.009Z,29.37
2017-01-06T10:01:16.756Z,29.3
2017-01-06T10:02:16.364Z,29.41
2017-01-06T10:03:15.930Z,29.42
2017-01-06T10:04:16.334Z,29.43
2017-01-06T10:05:16.050Z,29.36
2017-01-06T10:06:16.457Z,29.26
2017-01-06T10:07:16.075Z,29.34
2017-01-06T10:08:15.980Z,29.37
2017-01-06T10:09:16.837Z,29.36
2017-01-06T10:10:16.495Z,29.24
2017-01-06T10:11:17.106Z,29.28
2017-01-06T10:12:16.857Z,29.16
2017-01-06T10:13:16.923Z,29.28
2017-01-06T10:14:16.829Z,29.24
2017-01-06T10:15:16.596Z,29.21
2017-01-06T10:16:16.552Z,29.31
2017-01-06T10:17:16.953Z,29.45
2017-01-06T10:18:16.474Z,29.42
2017-01-06T10:19:16.875Z,29.33
2017-01-06T10:20:16.989Z,29.28
2017-01-06T10:21:16.499Z,29.28
2017-01-06T10:22:16.609Z,29.14
2017-01-06T10:23:16.568Z,29.24
2017-01-06T10:24:16.577Z,29.26
2017-01-06T10:25:16.640Z,29.24
2017-01-06T10:26:16.301Z,29.08
2017-01-06T10:27:16.655Z,29.09
2017-01-06T10:28:16.220Z,29.08
2017-01-06T10:29:16.629Z,29.09
2017-01-06T10:30:16.587Z,29.14
2017-01-06T10:31:16.591Z,29.16
2017-01-06T10:32:16.650Z,29.21
2017-01-06T10:33:16.666Z,29.23
2017-01-06T10:34:17.116Z,29.15
2017-01-06T10:35:17.073Z,29.15
2017-01-06T10:36:17.035Z,29.08
2017-01-06T10:37:16.697Z,29.21
2017-01-06T10:38:17.101Z,28.98
2017-01-06T10:39:16.766Z,29.12
2017-01-06T10:40:16.277Z,28.93
2017-01-06T10:41:16.732Z,28.7
2017-01-06T10:42:17.091Z,29.04
2017-01-06T10:43:16.750Z,28.93
2017-01-06T10:44:17.115Z,28.96
2017-01-06T10:45:16.769Z,28.89
2017-01-06T10:46:17.124Z,28.88
2017-01-06T10:47:16.788Z,28.89
2017-01-06T10:48:17.740Z,28.93
2017-01-06T10:49:16.853Z,28.92
2017-01-06T10:50:17.216Z,29.06
2017-01-06T10:51:16.824Z,28.9
2017-01-06T10:52:17.225Z,28.85
2017-01-06T10:53:16.891Z,28.86
2017-01-06T10:54:17.243Z,28.89
2017-01-06T10:55:16.855Z,28.96
2017-01-06T10:56:16.865Z,29
2017-01-06T10:57:17.269Z,28.83
2017-01-06T10:58:17.285Z,28.76
2017-01-06T10:59:17.286Z,28.92
2017-01-06T11:00:17.297Z,28.89
2017-01-06T11:01:16.861Z,28.81
2017-01-06T11:02:16.521Z,28.68
2017-01-06T11:03:16.527Z,28.68
2017-01-06T11:04:16.933Z,28.67
2017-01-06T11:05:17.286Z,28.64
2017-01-06T11:06:16.901Z,28.67
2017-01-06T11:07:17.014Z,28.7
2017-01-06T11:08:16.919Z,28.68
2017-01-06T11:09:16.532Z,28.68
2017-01-06T11:10:16.983Z,28.8
2017-01-06T11:11:16.960Z,28.66
2017-01-06T11:12:16.608Z,28.8
2017-01-06T11:13:17.457Z,28.88
2017-01-06T11:14:17.022Z,28.95
2017-01-06T11:15:16.975Z,28.93
2017-01-06T11:16:17.434Z,28.92
2017-01-06T11:17:17.441Z,28.83
2017-01-06T11:18:17.105Z,28.83
2017-01-06T11:19:17.064Z,28.77
2017-01-06T11:20:17.468Z,28.81
2017-01-06T11:21:17.526Z,28.8
2017-01-06T11:22:17.448Z,28.81
2017-01-06T11:23:17.098Z,28.89
2017-01-06T11:24:17.506Z,28.85
2017-01-06T11:25:17.115Z,28.9
2017-01-06T11:26:17.074Z,29.06
2017-01-06T11:27:17.131Z,28.83
2017-01-06T11:28:17.438Z,28.81
2017-01-06T11:29:17.200Z,29
2017-01-06T11:30:17.561Z,28.88
2017-01-06T11:31:17.173Z,28.8
2017-01-06T11:32:17.181Z,28.88
2017-01-06T11:33:17.186Z,28.98
2017-01-06T11:34:17.145Z,28.88
2017-01-06T11:35:17.945Z,28.88
2017-01-06T11:36:17.214Z,28.86
2017-01-06T11:37:17.611Z,28.92
2017-01-06T11:38:17.227Z,28.93
2017-01-06T11:39:17.233Z,28.96
2017-01-06T11:40:17.242Z,28.93
2017-01-06T11:41:17.248Z,28.85
2017-01-06T11:42:17.261Z,28.85
2017-01-06T11:43:17.268Z,28.86
2017-01-06T11:44:17.278Z,28.81
2017-01-06T11:45:17.680Z,28.85
2017-01-06T11:46:17.293Z,28.83
2017-01-06T11:47:17.317Z,28.88
2017-01-06T11:48:16.914Z,28.93
2017-01-06T11:49:17.285Z,29
2017-01-06T11:50:16.931Z,29.02
2017-01-06T11:51:17.683Z,28.89
2017-01-06T11:52:17.360Z,29
2017-01-06T11:53:16.969Z,29.04
2017-01-06T11:54:17.411Z,29.02
2017-01-06T11:55:16.969Z,28.9
2017-01-06T11:56:17.382Z,28.95
2017-01-06T11:57:17.735Z,28.89
2017-01-06T11:58:17.395Z,28.76
2017-01-06T11:59:17.404Z,28.86
2017-01-06T12:00:17.411Z,28.92
2017-01-06T12:01:17.818Z,28.9
2017-01-06T12:02:17.430Z,28.86
2017-01-06T12:03:17.493Z,28.9
2017-01-06T12:04:17.510Z,28.89
2017-01-06T12:05:17.457Z,28.83
2017-01-06T12:06:17.510Z,28.89
2017-01-06T12:07:17.039Z,28.89
2017-01-06T12:08:18.179Z,28.86
2017-01-06T12:09:17.487Z,28.77
2017-01-06T12:10:17.453Z,28.86
2017-01-06T12:11:17.506Z,28.81
2017-01-06T12:12:17.068Z,28.93
2017-01-06T12:13:17.966Z,28.85
2017-01-06T12:14:17.546Z,28.89
2017-01-06T12:15:17.946Z,28.83
2017-01-06T12:16:17.994Z,28.68
2017-01-06T12:17:17.551Z,28.74
2017-01-06T12:18:17.572Z,28.81
2017-01-06T12:19:17.180Z,28.9
2017-01-06T12:20:17.629Z,28.76
2017-01-06T12:21:17.641Z,28.66
2017-01-06T12:22:18.045Z,28.64
2017-01-06T12:23:18.057Z,28.67
2017-01-06T12:24:17.666Z,28.88
2017-01-06T12:25:17.639Z,28.93
2017-01-06T12:26:17.639Z,28.7
2017-01-06T12:27:18.087Z,28.7
2017-01-06T12:28:17.753Z,28.66
2017-01-06T12:29:17.606Z,28.76
2017-01-06T12:30:17.667Z,28.86
2017-01-06T12:31:18.019Z,29.06
2017-01-06T12:32:17.736Z,28.8
2017-01-06T12:33:17.696Z,28.66
2017-01-06T12:34:17.652Z,28.68
2017-01-06T12:35:17.715Z,28.83
2017-01-06T12:36:17.670Z,28.95
2017-01-06T12:37:17.774Z,29.12
2017-01-06T12:38:17.783Z,28.92
2017-01-06T12:39:17.796Z,28.78
2017-01-06T12:40:18.449Z,28.74
2017-01-06T12:41:17.813Z,28.86
2017-01-06T12:42:17.768Z,29.14
2017-01-06T12:43:18.222Z,29.02
2017-01-06T12:44:17.885Z,28.96
2017-01-06T12:45:18.238Z,28.78
2017-01-06T12:46:17.357Z,28.85
2017-01-06T12:47:17.811Z,28.93
2017-01-06T12:48:18.267Z,28.98
2017-01-06T12:49:18.181Z,29
2017-01-06T12:50:17.791Z,28.86
2017-01-06T12:51:18.245Z,28.89
2017-01-06T12:52:17.507Z,28.85
2017-01-06T12:53:17.519Z,28.78
2017-01-06T12:54:18.369Z,29
2017-01-06T12:55:17.486Z,28.88
2017-01-06T12:56:17.889Z,29.02